sensor_id;sensor_type;location;lat;lon;timestamp;temperature;humidity
46091;DHT22;31826;53.572;10.170;2023-04-06T00:01:39;2.70;99.90
46091;DHT22;31826;53.572;10.170;2023-04-06T00:04:06;2.70;99.90
46091;DHT22;31826;53.572;10.170;2023-04-06T00:06:32;2.70;99.90
46091;DHT22;31826;53.572;10.170;2023-04-06T00:08:58;2.60;99.90
46091;DHT22;31826;53.572;10.170;2023-04-06T00:11:24;2.60;99.90
46091;DHT22;31826;53.572;10.170;2023-04-06T00:13:51;2.50;99.90
46091;DHT22;31826;53.572;10.170;2023-04-06T00:16:17;2.50;99.90
46091;DHT22;31826;53.572;10.170;2023-04-06T00:18:42;2.50;99.90
46091;DHT22;31826;53.572;10.170;2023-04-06T00:21:11;2.50;99.90
46091;DHT22;31826;53.572;10.170;2023-04-06T00:23:38;2.40;99.90
46091;DHT22;31826;53.572;10.170;2023-04-06T00:26:04;2.40;99.90
46091;DHT22;31826;53.572;10.170;2023-04-06T00:28:30;2.40;99.90
46091;DHT22;31826;53.572;10.170;2023-04-06T00:30:56;2.40;99.90
46091;DHT22;31826;53.572;10.170;2023-04-06T00:33:23;2.30;99.90
46091;DHT22;31826;53.572;10.170;2023-04-06T00:35:49;2.20;99.90
46091;DHT22;31826;53.572;10.170;2023-04-06T00:38:15;2.10;99.90
46091;DHT22;31826;53.572;10.170;2023-04-06T00:40:41;1.90;99.90
46091;DHT22;31826;53.572;10.170;2023-04-06T00:43:09;1.90;99.90
46091;DHT22;31826;53.572;10.170;2023-04-06T00:45:37;1.80;99.90
46091;DHT22;31826;53.572;10.170;2023-04-06T00:48:03;1.80;99.90
46091;DHT22;31826;53.572;10.170;2023-04-06T00:50:29;1.90;99.90
46091;DHT22;31826;53.572;10.170;2023-04-06T00:52:55;1.80;99.90
46091;DHT22;31826;53.572;10.170;2023-04-06T00:55:21;1.90;99.90
46091;DHT22;31826;53.572;10.170;2023-04-06T00:57:47;1.90;99.90
46091;DHT22;31826;53.572;10.170;2023-04-06T01:00:13;1.90;99.90
46091;DHT22;31826;53.572;10.170;2023-04-06T01:02:39;2.00;99.90
46091;DHT22;31826;53.572;10.170;2023-04-06T01:05:06;1.90;99.90
46091;DHT22;31826;53.572;10.170;2023-04-06T01:07:32;1.90;99.90
46091;DHT22;31826;53.572;10.170;2023-04-06T01:09:57;1.90;99.90
46091;DHT22;31826;53.572;10.170;2023-04-06T01:12:24;1.90;99.90
46091;DHT22;31826;53.572;10.170;2023-04-06T01:14:50;1.90;99.90
46091;DHT22;31826;53.572;10.170;2023-04-06T01:17:16;1.90;99.90
46091;DHT22;31826;53.572;10.170;2023-04-06T01:19:42;1.80;99.90
46091;DHT22;31826;53.572;10.170;2023-04-06T01:22:07;1.80;99.90
46091;DHT22;31826;53.572;10.170;2023-04-06T01:24:33;1.80;99.90
46091;DHT22;31826;53.572;10.170;2023-04-06T01:26:59;1.70;99.90
46091;DHT22;31826;53.572;10.170;2023-04-06T01:29:26;1.70;99.90
46091;DHT22;31826;53.572;10.170;2023-04-06T01:31:52;1.70;99.90
46091;DHT22;31826;53.572;10.170;2023-04-06T01:34:18;1.60;99.90
46091;DHT22;31826;53.572;10.170;2023-04-06T01:36:44;1.60;99.90
46091;DHT22;31826;53.572;10.170;2023-04-06T01:39:09;1.60;99.90
46091;DHT22;31826;53.572;10.170;2023-04-06T01:41:35;1.50;99.90
46091;DHT22;31826;53.572;10.170;2023-04-06T01:44:02;1.40;99.90
46091;DHT22;31826;53.572;10.170;2023-04-06T01:46:27;1.40;99.90
46091;DHT22;31826;53.572;10.170;2023-04-06T01:48:53;1.40;99.90
46091;DHT22;31826;53.572;10.170;2023-04-06T01:51:19;1.40;99.90
46091;DHT22;31826;53.572;10.170;2023-04-06T01:53:45;1.40;99.90
46091;DHT22;31826;53.572;10.170;2023-04-06T01:56:11;1.30;99.90
46091;DHT22;31826;53.572;10.170;2023-04-06T01:58:36;1.20;99.90
46091;DHT22;31826;53.572;10.170;2023-04-06T02:01:02;1.10;99.90
46091;DHT22;31826;53.572;10.170;2023-04-06T02:03:28;1.00;99.90
46091;DHT22;31826;53.572;10.170;2023-04-06T02:05:54;1.00;99.90
46091;DHT22;31826;53.572;10.170;2023-04-06T02:08:19;1.00;99.90
46091;DHT22;31826;53.572;10.170;2023-04-06T02:10:45;1.10;99.90
46091;DHT22;31826;53.572;10.170;2023-04-06T02:13:11;1.10;99.90
46091;DHT22;31826;53.572;10.170;2023-04-06T02:15:37;1.10;99.90
46091;DHT22;31826;53.572;10.170;2023-04-06T02:18:02;1.20;99.90
46091;DHT22;31826;53.572;10.170;2023-04-06T02:20:28;1.20;99.90
46091;DHT22;31826;53.572;10.170;2023-04-06T02:22:58;1.30;99.90
46091;DHT22;31826;53.572;10.170;2023-04-06T02:25:23;1.30;99.90
46091;DHT22;31826;53.572;10.170;2023-04-06T02:27:49;1.30;99.90
46091;DHT22;31826;53.572;10.170;2023-04-06T02:30:15;1.30;99.90
46091;DHT22;31826;53.572;10.170;2023-04-06T02:32:41;1.30;99.90
46091;DHT22;31826;53.572;10.170;2023-04-06T02:35:07;1.10;99.90
46091;DHT22;31826;53.572;10.170;2023-04-06T02:37:32;1.10;99.90
46091;DHT22;31826;53.572;10.170;2023-04-06T02:39:58;1.20;99.90
46091;DHT22;31826;53.572;10.170;2023-04-06T02:42:24;1.20;99.90
46091;DHT22;31826;53.572;10.170;2023-04-06T02:44:50;1.30;99.90
46091;DHT22;31826;53.572;10.170;2023-04-06T02:47:15;1.30;99.90
46091;DHT22;31826;53.572;10.170;2023-04-06T02:49:41;1.20;99.90
46091;DHT22;31826;53.572;10.170;2023-04-06T02:52:07;1.20;99.90
46091;DHT22;31826;53.572;10.170;2023-04-06T02:54:32;1.20;99.90
46091;DHT22;31826;53.572;10.170;2023-04-06T02:56:58;1.20;99.90
46091;DHT22;31826;53.572;10.170;2023-04-06T02:59:24;1.20;99.90
46091;DHT22;31826;53.572;10.170;2023-04-06T03:01:51;1.20;99.90
46091;DHT22;31826;53.572;10.170;2023-04-06T03:04:16;1.20;99.90
46091;DHT22;31826;53.572;10.170;2023-04-06T03:06:42;1.10;99.90
46091;DHT22;31826;53.572;10.170;2023-04-06T03:09:08;1.10;99.90
46091;DHT22;31826;53.572;10.170;2023-04-06T03:11:34;1.10;99.90
46091;DHT22;31826;53.572;10.170;2023-04-06T03:13:59;1.10;99.90
46091;DHT22;31826;53.572;10.170;2023-04-06T03:16:25;1.10;99.90
46091;DHT22;31826;53.572;10.170;2023-04-06T03:18:51;1.10;99.90
46091;DHT22;31826;53.572;10.170;2023-04-06T03:21:17;1.10;99.90
46091;DHT22;31826;53.572;10.170;2023-04-06T03:23:44;1.00;99.90
46091;DHT22;31826;53.572;10.170;2023-04-06T03:26:10;1.00;99.90
46091;DHT22;31826;53.572;10.170;2023-04-06T03:28:36;1.10;99.90
46091;DHT22;31826;53.572;10.170;2023-04-06T03:31:02;1.10;99.90
46091;DHT22;31826;53.572;10.170;2023-04-06T03:33:27;1.10;99.90
46091;DHT22;31826;53.572;10.170;2023-04-06T03:35:53;1.10;99.90
46091;DHT22;31826;53.572;10.170;2023-04-06T03:38:19;1.10;99.90
46091;DHT22;31826;53.572;10.170;2023-04-06T03:40:46;1.10;99.90
46091;DHT22;31826;53.572;10.170;2023-04-06T03:43:12;1.10;99.90
46091;DHT22;31826;53.572;10.170;2023-04-06T03:45:37;1.20;99.90
46091;DHT22;31826;53.572;10.170;2023-04-06T03:48:04;1.20;99.90
46091;DHT22;31826;53.572;10.170;2023-04-06T03:50:30;1.20;99.90
46091;DHT22;31826;53.572;10.170;2023-04-06T03:52:56;1.20;99.90
46091;DHT22;31826;53.572;10.170;2023-04-06T03:55:21;1.10;99.90
46091;DHT22;31826;53.572;10.170;2023-04-06T03:57:47;1.10;99.90
46091;DHT22;31826;53.572;10.170;2023-04-06T04:00:13;1.10;99.90
46091;DHT22;31826;53.572;10.170;2023-04-06T04:02:39;1.20;99.90
46091;DHT22;31826;53.572;10.170;2023-04-06T04:05:05;1.20;99.90
46091;DHT22;31826;53.572;10.170;2023-04-06T04:07:31;1.20;99.90
46091;DHT22;31826;53.572;10.170;2023-04-06T04:09:57;1.20;99.90
46091;DHT22;31826;53.572;10.170;2023-04-06T04:12:22;1.20;99.90
46091;DHT22;31826;53.572;10.170;2023-04-06T04:14:48;1.10;99.90
46091;DHT22;31826;53.572;10.170;2023-04-06T04:17:14;1.10;99.90
46091;DHT22;31826;53.572;10.170;2023-04-06T04:19:40;1.00;99.90
46091;DHT22;31826;53.572;10.170;2023-04-06T04:22:06;1.00;99.90
46091;DHT22;31826;53.572;10.170;2023-04-06T04:24:32;1.00;99.90
46091;DHT22;31826;53.572;10.170;2023-04-06T04:26:59;1.00;99.90
46091;DHT22;31826;53.572;10.170;2023-04-06T04:29:26;1.00;99.90
46091;DHT22;31826;53.572;10.170;2023-04-06T04:31:52;1.10;99.90
46091;DHT22;31826;53.572;10.170;2023-04-06T04:34:18;1.10;99.90
46091;DHT22;31826;53.572;10.170;2023-04-06T04:36:46;1.00;99.90
46091;DHT22;31826;53.572;10.170;2023-04-06T04:39:12;1.00;99.90
46091;DHT22;31826;53.572;10.170;2023-04-06T04:41:38;1.00;99.90
46091;DHT22;31826;53.572;10.170;2023-04-06T04:44:03;1.00;99.90
46091;DHT22;31826;53.572;10.170;2023-04-06T04:46:29;1.00;99.90
46091;DHT22;31826;53.572;10.170;2023-04-06T04:48:55;0.90;99.90
46091;DHT22;31826;53.572;10.170;2023-04-06T04:51:21;0.60;99.90
46091;DHT22;31826;53.572;10.170;2023-04-06T04:53:47;0.50;99.90
46091;DHT22;31826;53.572;10.170;2023-04-06T04:56:12;0.40;99.90
46091;DHT22;31826;53.572;10.170;2023-04-06T04:58:38;0.30;99.90
46091;DHT22;31826;53.572;10.170;2023-04-06T05:01:04;0.40;99.90
46091;DHT22;31826;53.572;10.170;2023-04-06T05:03:30;0.60;99.90
46091;DHT22;31826;53.572;10.170;2023-04-06T05:05:56;0.70;99.90
46091;DHT22;31826;53.572;10.170;2023-04-06T05:08:21;0.70;99.90
46091;DHT22;31826;53.572;10.170;2023-04-06T05:10:49;0.80;99.90
46091;DHT22;31826;53.572;10.170;2023-04-06T05:13:15;0.80;99.90
46091;DHT22;31826;53.572;10.170;2023-04-06T05:15:41;0.90;99.90
46091;DHT22;31826;53.572;10.170;2023-04-06T05:18:08;0.90;99.90
46091;DHT22;31826;53.572;10.170;2023-04-06T05:20:34;1.00;99.90
46091;DHT22;31826;53.572;10.170;2023-04-06T05:23:01;1.00;99.90
46091;DHT22;31826;53.572;10.170;2023-04-06T05:25:27;1.10;99.90
46091;DHT22;31826;53.572;10.170;2023-04-06T05:27:53;1.10;99.90
46091;DHT22;31826;53.572;10.170;2023-04-06T05:30:19;1.20;99.90
46091;DHT22;31826;53.572;10.170;2023-04-06T05:32:46;1.10;99.90
46091;DHT22;31826;53.572;10.170;2023-04-06T05:35:12;1.30;99.90
46091;DHT22;31826;53.572;10.170;2023-04-06T05:37:38;1.40;99.90
46091;DHT22;31826;53.572;10.170;2023-04-06T05:40:05;1.40;99.90
46091;DHT22;31826;53.572;10.170;2023-04-06T05:42:38;1.40;99.90
46091;DHT22;31826;53.572;10.170;2023-04-06T05:45:05;1.50;99.90
46091;DHT22;31826;53.572;10.170;2023-04-06T05:47:31;1.50;99.90
46091;DHT22;31826;53.572;10.170;2023-04-06T05:49:56;1.30;99.90
46091;DHT22;31826;53.572;10.170;2023-04-06T05:52:22;1.30;99.90
46091;DHT22;31826;53.572;10.170;2023-04-06T05:54:48;1.30;99.90
46091;DHT22;31826;53.572;10.170;2023-04-06T05:57:14;1.30;99.90
46091;DHT22;31826;53.572;10.170;2023-04-06T05:59:42;1.30;99.90
46091;DHT22;31826;53.572;10.170;2023-04-06T06:02:07;1.30;99.90
46091;DHT22;31826;53.572;10.170;2023-04-06T06:04:33;1.20;99.90
46091;DHT22;31826;53.572;10.170;2023-04-06T06:06:59;1.20;99.90
46091;DHT22;31826;53.572;10.170;2023-04-06T06:09:25;1.20;99.90
46091;DHT22;31826;53.572;10.170;2023-04-06T06:11:51;1.30;99.90
46091;DHT22;31826;53.572;10.170;2023-04-06T06:14:17;1.40;99.90
46091;DHT22;31826;53.572;10.170;2023-04-06T06:16:43;1.40;99.90
46091;DHT22;31826;53.572;10.170;2023-04-06T06:19:08;1.50;99.90
46091;DHT22;31826;53.572;10.170;2023-04-06T06:21:34;1.60;99.90
46091;DHT22;31826;53.572;10.170;2023-04-06T06:24:00;1.80;99.90
46091;DHT22;31826;53.572;10.170;2023-04-06T06:26:26;1.90;99.90
46091;DHT22;31826;53.572;10.170;2023-04-06T06:28:52;2.00;99.90
46091;DHT22;31826;53.572;10.170;2023-04-06T06:31:17;2.10;99.90
46091;DHT22;31826;53.572;10.170;2023-04-06T06:33:46;2.30;99.90
46091;DHT22;31826;53.572;10.170;2023-04-06T06:36:16;2.40;99.90
46091;DHT22;31826;53.572;10.170;2023-04-06T06:38:42;2.60;99.90
46091;DHT22;31826;53.572;10.170;2023-04-06T06:41:07;2.90;99.90
46091;DHT22;31826;53.572;10.170;2023-04-06T06:43:33;2.90;99.90
46091;DHT22;31826;53.572;10.170;2023-04-06T06:45:59;3.00;99.90
46091;DHT22;31826;53.572;10.170;2023-04-06T06:48:25;3.10;99.90
46091;DHT22;31826;53.572;10.170;2023-04-06T06:50:51;3.20;99.90
46091;DHT22;31826;53.572;10.170;2023-04-06T06:53:16;3.40;99.90
46091;DHT22;31826;53.572;10.170;2023-04-06T06:55:42;3.50;99.90
46091;DHT22;31826;53.572;10.170;2023-04-06T06:58:09;3.60;99.90
46091;DHT22;31826;53.572;10.170;2023-04-06T07:00:35;3.80;99.90
46091;DHT22;31826;53.572;10.170;2023-04-06T07:03:01;3.90;99.90
46091;DHT22;31826;53.572;10.170;2023-04-06T07:05:27;4.00;99.90
46091;DHT22;31826;53.572;10.170;2023-04-06T07:07:54;4.10;99.90
46091;DHT22;31826;53.572;10.170;2023-04-06T07:10:20;4.30;99.90
46091;DHT22;31826;53.572;10.170;2023-04-06T07:12:46;4.40;99.90
46091;DHT22;31826;53.572;10.170;2023-04-06T07:15:12;4.60;99.90
46091;DHT22;31826;53.572;10.170;2023-04-06T07:17:37;4.90;99.90
46091;DHT22;31826;53.572;10.170;2023-04-06T07:20:03;5.00;99.90
46091;DHT22;31826;53.572;10.170;2023-04-06T07:22:29;5.10;99.90
46091;DHT22;31826;53.572;10.170;2023-04-06T07:24:56;5.20;99.90
46091;DHT22;31826;53.572;10.170;2023-04-06T07:27:21;5.30;99.90
46091;DHT22;31826;53.572;10.170;2023-04-06T07:29:47;5.40;99.90
46091;DHT22;31826;53.572;10.170;2023-04-06T07:32:13;5.60;99.90
46091;DHT22;31826;53.572;10.170;2023-04-06T07:34:39;5.80;99.50
46091;DHT22;31826;53.572;10.170;2023-04-06T07:37:05;6.00;99.30
46091;DHT22;31826;53.572;10.170;2023-04-06T07:39:31;6.10;98.50
46091;DHT22;31826;53.572;10.170;2023-04-06T07:41:56;6.20;98.50
46091;DHT22;31826;53.572;10.170;2023-04-06T07:44:22;6.40;98.10
46091;DHT22;31826;53.572;10.170;2023-04-06T07:46:48;6.60;98.00
46091;DHT22;31826;53.572;10.170;2023-04-06T07:49:14;6.60;98.20
46091;DHT22;31826;53.572;10.170;2023-04-06T07:51:40;6.80;97.70
46091;DHT22;31826;53.572;10.170;2023-04-06T07:54:05;6.90;97.00
46091;DHT22;31826;53.572;10.170;2023-04-06T07:56:31;7.00;96.40
46091;DHT22;31826;53.572;10.170;2023-04-06T07:58:57;7.20;96.20
46091;DHT22;31826;53.572;10.170;2023-04-06T08:01:24;7.30;95.30
46091;DHT22;31826;53.572;10.170;2023-04-06T08:03:50;7.40;95.20
46091;DHT22;31826;53.572;10.170;2023-04-06T08:06:16;7.70;95.60
46091;DHT22;31826;53.572;10.170;2023-04-06T08:08:43;7.90;94.30
46091;DHT22;31826;53.572;10.170;2023-04-06T08:11:09;8.20;93.80
46091;DHT22;31826;53.572;10.170;2023-04-06T08:13:35;8.20;92.80
46091;DHT22;31826;53.572;10.170;2023-04-06T08:16:01;8.00;92.40
46091;DHT22;31826;53.572;10.170;2023-04-06T08:18:27;8.20;92.60
46091;DHT22;31826;53.572;10.170;2023-04-06T08:20:54;8.40;92.00
46091;DHT22;31826;53.572;10.170;2023-04-06T08:23:20;8.50;91.80
46091;DHT22;31826;53.572;10.170;2023-04-06T08:25:46;8.70;92.20
46091;DHT22;31826;53.572;10.170;2023-04-06T08:28:12;9.00;91.30
46091;DHT22;31826;53.572;10.170;2023-04-06T08:30:40;9.20;90.60
46091;DHT22;31826;53.572;10.170;2023-04-06T08:33:06;9.10;89.30
46091;DHT22;31826;53.572;10.170;2023-04-06T08:35:32;8.70;90.00
46091;DHT22;31826;53.572;10.170;2023-04-06T08:37:57;8.60;88.30
46091;DHT22;31826;53.572;10.170;2023-04-06T08:40:23;8.70;87.10
46091;DHT22;31826;53.572;10.170;2023-04-06T08:42:55;8.90;87.70
46091;DHT22;31826;53.572;10.170;2023-04-06T08:45:21;9.20;86.80
46091;DHT22;31826;53.572;10.170;2023-04-06T08:47:50;9.30;88.30
46091;DHT22;31826;53.572;10.170;2023-04-06T08:50:16;9.40;84.50
46091;DHT22;31826;53.572;10.170;2023-04-06T08:52:45;9.50;85.00
46091;DHT22;31826;53.572;10.170;2023-04-06T08:55:12;9.60;83.80
46091;DHT22;31826;53.572;10.170;2023-04-06T08:57:38;9.70;84.70
46091;DHT22;31826;53.572;10.170;2023-04-06T09:00:05;9.80;84.00
46091;DHT22;31826;53.572;10.170;2023-04-06T09:02:32;10.10;84.90
46091;DHT22;31826;53.572;10.170;2023-04-06T09:04:59;10.30;83.70
46091;DHT22;31826;53.572;10.170;2023-04-06T09:07:26;10.60;81.80
46091;DHT22;31826;53.572;10.170;2023-04-06T09:09:52;10.20;82.50
46091;DHT22;31826;53.572;10.170;2023-04-06T09:14:50;10.10;80.10
46091;DHT22;31826;53.572;10.170;2023-04-06T09:17:24;10.20;81.00
46091;DHT22;31826;53.572;10.170;2023-04-06T09:19:50;10.40;81.20
46091;DHT22;31826;53.572;10.170;2023-04-06T09:22:16;10.80;80.40
46091;DHT22;31826;53.572;10.170;2023-04-06T09:24:49;10.90;79.50
46091;DHT22;31826;53.572;10.170;2023-04-06T09:27:16;10.90;77.20
46091;DHT22;31826;53.572;10.170;2023-04-06T09:29:43;10.70;78.30
46091;DHT22;31826;53.572;10.170;2023-04-06T09:32:10;10.60;77.40
46091;DHT22;31826;53.572;10.170;2023-04-06T09:34:39;10.50;78.40
46091;DHT22;31826;53.572;10.170;2023-04-06T09:37:15;10.50;78.10
46091;DHT22;31826;53.572;10.170;2023-04-06T09:39:41;10.50;76.90
46091;DHT22;31826;53.572;10.170;2023-04-06T09:42:07;10.50;77.60
46091;DHT22;31826;53.572;10.170;2023-04-06T09:44:33;10.60;79.90
46091;DHT22;31826;53.572;10.170;2023-04-06T09:46:59;11.00;79.80
46091;DHT22;31826;53.572;10.170;2023-04-06T09:49:27;11.00;79.20
46091;DHT22;31826;53.572;10.170;2023-04-06T09:52:02;10.90;80.00
46091;DHT22;31826;53.572;10.170;2023-04-06T09:54:30;11.30;81.90
46091;DHT22;31826;53.572;10.170;2023-04-06T10:05:07;11.40;79.40
46091;DHT22;31826;53.572;10.170;2023-04-06T10:07:35;11.60;76.70
46091;DHT22;31826;53.572;10.170;2023-04-06T10:10:02;11.50;77.00
46091;DHT22;31826;53.572;10.170;2023-04-06T10:12:29;11.70;77.30
46091;DHT22;31826;53.572;10.170;2023-04-06T10:14:56;12.30;75.90
46091;DHT22;31826;53.572;10.170;2023-04-06T10:17:21;12.20;72.80
46091;DHT22;31826;53.572;10.170;2023-04-06T10:19:59;12.10;72.20
46091;DHT22;31826;53.572;10.170;2023-04-06T10:22:56;12.20;73.30
46091;DHT22;31826;53.572;10.170;2023-04-06T10:25:31;12.30;72.80
46091;DHT22;31826;53.572;10.170;2023-04-06T10:28:15;12.40;73.20
46091;DHT22;31826;53.572;10.170;2023-04-06T10:30:44;12.50;71.80
46091;DHT22;31826;53.572;10.170;2023-04-06T10:33:18;12.40;71.40
46091;DHT22;31826;53.572;10.170;2023-04-06T10:35:44;12.50;70.40
46091;DHT22;31826;53.572;10.170;2023-04-06T10:38:10;12.40;71.60
46091;DHT22;31826;53.572;10.170;2023-04-06T10:40:38;12.10;72.70
46091;DHT22;31826;53.572;10.170;2023-04-06T10:43:19;12.50;72.80
46091;DHT22;31826;53.572;10.170;2023-04-06T10:45:45;12.70;71.60
46091;DHT22;31826;53.572;10.170;2023-04-06T10:48:19;12.70;71.30
46091;DHT22;31826;53.572;10.170;2023-04-06T10:50:48;12.60;71.30
46091;DHT22;31826;53.572;10.170;2023-04-06T10:53:25;12.90;72.10
46091;DHT22;31826;53.572;10.170;2023-04-06T10:55:53;12.60;71.90
46091;DHT22;31826;53.572;10.170;2023-04-06T10:58:20;12.60;71.60
46091;DHT22;31826;53.572;10.170;2023-04-06T11:00:47;12.50;70.30
46091;DHT22;31826;53.572;10.170;2023-04-06T11:03:13;12.80;71.40
46091;DHT22;31826;53.572;10.170;2023-04-06T11:05:44;12.20;70.50
46091;DHT22;31826;53.572;10.170;2023-04-06T11:08:10;12.50;71.00
46091;DHT22;31826;53.572;10.170;2023-04-06T11:10:36;12.60;71.10
46091;DHT22;31826;53.572;10.170;2023-04-06T11:13:01;12.70;71.70
46091;DHT22;31826;53.572;10.170;2023-04-06T11:15:34;12.80;72.50
46091;DHT22;31826;53.572;10.170;2023-04-06T11:18:04;12.70;71.30
46091;DHT22;31826;53.572;10.170;2023-04-06T11:20:30;13.20;71.40
46091;DHT22;31826;53.572;10.170;2023-04-06T11:22:56;13.50;70.50
46091;DHT22;31826;53.572;10.170;2023-04-06T11:25:24;13.70;71.50
46091;DHT22;31826;53.572;10.170;2023-04-06T11:27:51;13.60;70.00
46091;DHT22;31826;53.572;10.170;2023-04-06T11:30:18;13.30;68.80
46091;DHT22;31826;53.572;10.170;2023-04-06T11:32:45;13.30;69.60
46091;DHT22;31826;53.572;10.170;2023-04-06T11:35:19;13.40;71.50
46091;DHT22;31826;53.572;10.170;2023-04-06T11:37:45;13.90;70.20
46091;DHT22;31826;53.572;10.170;2023-04-06T11:40:11;14.00;69.40
46091;DHT22;31826;53.572;10.170;2023-04-06T11:42:37;14.10;69.40
46091;DHT22;31826;53.572;10.170;2023-04-06T11:45:03;13.90;67.50
46091;DHT22;31826;53.572;10.170;2023-04-06T11:47:30;13.70;68.90
46091;DHT22;31826;53.572;10.170;2023-04-06T11:50:04;13.60;69.10
46091;DHT22;31826;53.572;10.170;2023-04-06T11:52:30;13.90;68.90
46091;DHT22;31826;53.572;10.170;2023-04-06T11:54:56;13.70;68.80
46091;DHT22;31826;53.572;10.170;2023-04-06T11:57:23;13.50;68.40
46091;DHT22;31826;53.572;10.170;2023-04-06T11:59:53;13.80;68.80
46091;DHT22;31826;53.572;10.170;2023-04-06T12:02:19;13.70;68.40
46091;DHT22;31826;53.572;10.170;2023-04-06T12:04:45;13.90;70.10
46091;DHT22;31826;53.572;10.170;2023-04-06T12:07:11;14.00;68.60
46091;DHT22;31826;53.572;10.170;2023-04-06T12:09:37;14.60;68.30
46091;DHT22;31826;53.572;10.170;2023-04-06T12:12:04;15.20;66.90
46091;DHT22;31826;53.572;10.170;2023-04-06T12:14:30;14.70;67.20
46091;DHT22;31826;53.572;10.170;2023-04-06T12:16:57;15.00;67.60
46091;DHT22;31826;53.572;10.170;2023-04-06T12:19:23;15.50;67.30
46091;DHT22;31826;53.572;10.170;2023-04-06T12:21:52;14.30;66.10
46091;DHT22;31826;53.572;10.170;2023-04-06T12:24:18;14.70;67.40
46091;DHT22;31826;53.572;10.170;2023-04-06T12:26:44;14.80;67.80
46091;DHT22;31826;53.572;10.170;2023-04-06T12:29:10;14.70;65.00
46091;DHT22;31826;53.572;10.170;2023-04-06T12:31:38;14.60;68.20
46091;DHT22;31826;53.572;10.170;2023-04-06T12:34:06;14.50;66.90
46091;DHT22;31826;53.572;10.170;2023-04-06T12:36:32;14.60;66.50
46091;DHT22;31826;53.572;10.170;2023-04-06T12:38:58;14.70;65.30
46091;DHT22;31826;53.572;10.170;2023-04-06T12:41:24;14.90;65.90
46091;DHT22;31826;53.572;10.170;2023-04-06T12:43:50;15.40;65.00
46091;DHT22;31826;53.572;10.170;2023-04-06T12:46:17;15.10;66.20
46091;DHT22;31826;53.572;10.170;2023-04-06T12:48:42;15.10;65.10
46091;DHT22;31826;53.572;10.170;2023-04-06T12:51:08;14.40;65.70
46091;DHT22;31826;53.572;10.170;2023-04-06T12:53:34;14.60;68.20
46091;DHT22;31826;53.572;10.170;2023-04-06T12:56:01;14.50;64.70
46091;DHT22;31826;53.572;10.170;2023-04-06T12:58:27;14.20;65.10
46091;DHT22;31826;53.572;10.170;2023-04-06T13:00:54;14.60;65.80
46091;DHT22;31826;53.572;10.170;2023-04-06T13:03:20;14.60;67.30
46091;DHT22;31826;53.572;10.170;2023-04-06T13:05:47;14.70;64.70
46091;DHT22;31826;53.572;10.170;2023-04-06T13:08:14;14.30;65.00
46091;DHT22;31826;53.572;10.170;2023-04-06T13:10:50;14.80;66.40
46091;DHT22;31826;53.572;10.170;2023-04-06T13:13:16;14.90;65.60
46091;DHT22;31826;53.572;10.170;2023-04-06T13:15:42;15.10;66.20
46091;DHT22;31826;53.572;10.170;2023-04-06T13:18:09;15.00;66.90
46091;DHT22;31826;53.572;10.170;2023-04-06T13:20:35;14.80;64.20
46091;DHT22;31826;53.572;10.170;2023-04-06T13:23:01;14.80;65.30
46091;DHT22;31826;53.572;10.170;2023-04-06T13:25:27;14.20;65.00
46091;DHT22;31826;53.572;10.170;2023-04-06T13:27:53;14.30;64.90
46091;DHT22;31826;53.572;10.170;2023-04-06T13:30:20;14.30;66.60
46091;DHT22;31826;53.572;10.170;2023-04-06T13:32:46;14.50;67.00
46091;DHT22;31826;53.572;10.170;2023-04-06T13:35:12;14.40;66.00
46091;DHT22;31826;53.572;10.170;2023-04-06T13:37:38;14.60;65.40
46091;DHT22;31826;53.572;10.170;2023-04-06T13:40:04;14.40;65.80
46091;DHT22;31826;53.572;10.170;2023-04-06T13:42:30;14.30;66.40
46091;DHT22;31826;53.572;10.170;2023-04-06T13:44:56;14.70;66.00
46091;DHT22;31826;53.572;10.170;2023-04-06T13:47:22;14.60;66.50
46091;DHT22;31826;53.572;10.170;2023-04-06T13:49:50;14.10;65.80
46091;DHT22;31826;53.572;10.170;2023-04-06T13:52:17;14.50;66.30
46091;DHT22;31826;53.572;10.170;2023-04-06T13:54:43;14.80;65.60
46091;DHT22;31826;53.572;10.170;2023-04-06T13:57:09;14.10;65.80
46091;DHT22;31826;53.572;10.170;2023-04-06T13:59:35;14.20;66.90
46091;DHT22;31826;53.572;10.170;2023-04-06T14:02:03;14.00;66.30
46091;DHT22;31826;53.572;10.170;2023-04-06T14:04:29;14.00;66.60
46091;DHT22;31826;53.572;10.170;2023-04-06T14:06:56;14.50;67.20
46091;DHT22;31826;53.572;10.170;2023-04-06T14:09:22;14.80;65.90
46091;DHT22;31826;53.572;10.170;2023-04-06T14:11:48;15.20;68.00
46091;DHT22;31826;53.572;10.170;2023-04-06T14:14:14;15.00;65.60
46091;DHT22;31826;53.572;10.170;2023-04-06T14:16:40;15.10;66.60
46091;DHT22;31826;53.572;10.170;2023-04-06T14:19:10;14.70;65.20
46091;DHT22;31826;53.572;10.170;2023-04-06T14:21:44;14.00;66.00
46091;DHT22;31826;53.572;10.170;2023-04-06T14:24:10;14.10;67.40
46091;DHT22;31826;53.572;10.170;2023-04-06T14:26:37;14.30;67.30
46091;DHT22;31826;53.572;10.170;2023-04-06T14:29:03;14.80;67.40
46091;DHT22;31826;53.572;10.170;2023-04-06T14:31:32;15.20;66.70
46091;DHT22;31826;53.572;10.170;2023-04-06T14:34:00;14.70;66.60
46091;DHT22;31826;53.572;10.170;2023-04-06T14:36:26;14.60;67.20
46091;DHT22;31826;53.572;10.170;2023-04-06T14:38:59;13.90;66.50
46091;DHT22;31826;53.572;10.170;2023-04-06T14:41:25;13.70;67.50
46091;DHT22;31826;53.572;10.170;2023-04-06T14:43:51;13.80;67.50
46091;DHT22;31826;53.572;10.170;2023-04-06T14:46:18;13.60;67.10
46091;DHT22;31826;53.572;10.170;2023-04-06T14:48:46;13.80;68.80
46091;DHT22;31826;53.572;10.170;2023-04-06T14:51:12;14.20;68.30
46091;DHT22;31826;53.572;10.170;2023-04-06T14:53:38;14.40;66.80
46091;DHT22;31826;53.572;10.170;2023-04-06T14:56:04;14.70;67.00
46091;DHT22;31826;53.572;10.170;2023-04-06T14:58:30;14.30;66.70
46091;DHT22;31826;53.572;10.170;2023-04-06T15:00:59;14.00;68.50
46091;DHT22;31826;53.572;10.170;2023-04-06T15:03:27;13.90;67.40
46091;DHT22;31826;53.572;10.170;2023-04-06T15:05:53;13.50;67.80
46091;DHT22;31826;53.572;10.170;2023-04-06T15:08:19;13.50;68.10
46091;DHT22;31826;53.572;10.170;2023-04-06T15:10:48;13.30;67.70
46091;DHT22;31826;53.572;10.170;2023-04-06T15:13:14;13.10;68.40
46091;DHT22;31826;53.572;10.170;2023-04-06T15:15:41;13.10;69.30
46091;DHT22;31826;53.572;10.170;2023-04-06T15:18:07;13.20;69.30
46091;DHT22;31826;53.572;10.170;2023-04-06T15:20:33;13.20;69.40
46091;DHT22;31826;53.572;10.170;2023-04-06T15:23:00;13.20;69.50
46091;DHT22;31826;53.572;10.170;2023-04-06T15:25:26;13.10;69.70
46091;DHT22;31826;53.572;10.170;2023-04-06T15:27:51;12.90;68.50
46091;DHT22;31826;53.572;10.170;2023-04-06T15:30:17;12.90;70.40
46091;DHT22;31826;53.572;10.170;2023-04-06T15:32:55;12.90;69.50